Detalii statie AFILIU TRANS MIZIL [00001982]

Toti senzorii

Date Temperatura solului [C]Precipitatii [mm]Voltaj baterie [mV]Leaf Wetness [Min]HC Air temperature [C]HC Relative humidity [%]Punctul de roua [C]
medieminmaxsumaultimatimpmedieminmaxmediemediemin
2018-10-10 19:00:00 0 6952 11.64 9.83 13.8 60.64 4.1 3.8
2018-10-10 20:00:00 0 6884 10.95 9.88 11.88 62.89 3.9 3.5
2018-10-10 21:00:00 0 6864 8.38 7.39 9.42 73.03 3.6 3.3
2018-10-10 22:00:00 0 6864 7.84 6.82 9.22 75.55 3.6 3.3
2018-10-10 23:00:00 0 6844 7.8 6.67 11.05 81.55 4.7 3.8
2018-10-11 00:00:00 0 6806 10.97 10.37 11.52 69.98 5.5 5.3
2018-10-11 01:00:00 0 6796 10.68 10.05 11.17 72.86 5.9 5.4
2018-10-11 02:00:00 0 6806 10.49 10.2 10.88 74.25 6 5.9
2018-10-11 03:00:00 0 6816 10.89 10.06 11.52 73.72 6.2 5.8
2018-10-11 04:00:00 0 6806 10.2 10.01 10.52 75.9 6 5.8
2018-10-11 05:00:00 0 6796 9.77 9.57 9.99 79.17 6.1 6
2018-10-11 06:00:00 0 6806 10.2 9.77 10.48 79.09 6.6 6.2
2018-10-11 07:00:00 0 6816 11.71 10.83 12.55 75.29 7.3 7.1
2018-10-11 08:00:00 0 6854 13.33 12.65 14.25 70.04 7.8 7.6
2018-10-11 09:00:00 0 7226 16 14.53 17.78 60.96 8.3 8.1
2018-10-11 10:00:00 0 7226 17.72 16.74 18.46 54.07 8.1 7.6
2018-10-11 11:00:00 0 7216 19.44 18.78 20.06 49.15 8.3 7.8
2018-10-11 12:00:00 0 7216 20.2 19.86 20.64 45.36 7.7 7.5
2018-10-11 13:00:00 0 7216 20.58 20.2 20.94 42.65 7.2 6.9
2018-10-11 14:00:00 0 7216 20.96 20.61 21.21 40.06 6.6 6.1
2018-10-11 15:00:00 0 7216 20.95 20.78 21.1 38.02 5.9 4.5
2018-10-11 16:00:00 0 7226 20.5 20.09 20.88 36.44 4.7 4.2
2018-10-11 17:00:00 0 7216 19.58 18.82 20.07 40.17 5.4 4.6
2018-10-11 18:00:00 0 7040 17.46 16.55 18.74 43.31 4.6 4.5
2018-10-11 19:00:00 0 6962 14.64 13.61 16.51 51.41 4.5 4.2
2018-10-11 20:00:00 0 6904 12.26 11.42 13.94 59.37 4.3 4
2018-10-11 21:00:00 0 6894 10.93 10.58 11.14 67.05 4.9 4.6
2018-10-11 22:00:00 0 6884 10.91 10.39 11.5 68.59 5.2 5
2018-10-11 23:00:00 0 6864 10.99 10.27 11.56 68.73 5.2 4.8
2018-10-12 00:00:00 0 6854 10 9.68 10.39 73.94 5.4 5
2018-10-12 01:00:00 0 6826 9.58 9.21 9.84 75.53 5.3 5
2018-10-12 02:00:00 0 6834 10.31 9.35 10.96 72.5 5.4 5
2018-10-12 03:00:00 0 6816 8.59 8.28 9.13 80.52 5.3 4.9
2018-10-12 04:00:00 0 6816 9.52 9.36 9.73 76.37 5.4 5.3
2018-10-12 05:00:00 0 6826 9.97 9.34 10.27 74.55 5.5 5.3
2018-10-12 06:00:00 0 6806 8.55 8.25 9.04 79.53 5.1 4.8
2018-10-12 07:00:00 0 6806 7.84 7.71 7.96 81.26 4.7 4.5
2018-10-12 08:00:00 0 6972 10.37 7.89 13.3 75.56 6 4.9
2018-10-12 09:00:00 0 7226 16.39 14.07 17.79 54.66 7 6.5
2018-10-12 10:00:00 0 7216 18.5 17.65 19.88 45.78 6.3 5.8
2018-10-12 11:00:00 0 7216 20.18 19.6 20.66 39.14 5.6 4.7
2018-10-12 12:00:00 0 7216 21.08 20.65 21.3 35.48 5 4.7
2018-10-12 13:00:00 0 7216 21.51 21.35 21.84 33.96 4.7 4.4
2018-10-12 14:00:00 0 7216 21.83 21.56 22.16 31.01 3.6 2.9
2018-10-12 15:00:00 0 7216 21.85 21.69 22.07 30.11 3.2 2.9
2018-10-12 16:00:00 0 7226 21.63 21.38 21.83 28.15 2.1 1.7
2018-10-12 17:00:00 0 7166 20.78 19.95 21.35 29.19 1.9 1.5
2018-10-12 18:00:00 0 6962 18.59 17.46 19.84 35.41 2.7 2.2